createdAt,value
2018-06-08T00:00:29.701Z,56.50
2018-06-08T00:05:33.486Z,56.70
2018-06-08T00:10:37.100Z,56.70
2018-06-08T00:15:41.469Z,56.50
2018-06-08T00:20:45.260Z,56.90
2018-06-08T00:25:48.990Z,56.80
2018-06-08T00:30:52.662Z,57.10
2018-06-08T00:35:57.470Z,57.20
2018-06-08T00:41:01.218Z,57.10
2018-06-08T00:46:04.934Z,57.20
2018-06-08T00:51:08.624Z,57.20
2018-06-08T00:56:23.212Z,58.00
2018-06-08T01:01:26.827Z,57.40
2018-06-08T01:06:30.413Z,57.30
2018-06-08T01:11:34.200Z,57.60
2018-06-08T01:16:37.882Z,57.70
2018-06-08T01:21:41.570Z,57.50
2018-06-08T01:26:45.168Z,57.80
2018-06-08T01:31:48.868Z,57.70
2018-06-08T01:36:52.501Z,57.70
2018-06-08T01:41:56.198Z,57.90
2018-06-08T01:46:59.844Z,57.60
2018-06-08T01:52:03.557Z,58.00
2018-06-08T01:57:07.210Z,58.10
2018-06-08T02:02:10.972Z,57.80
2018-06-08T02:07:14.724Z,57.90
2018-06-08T02:12:18.374Z,57.80
2018-06-08T02:17:22.205Z,57.80
2018-06-08T02:22:25.892Z,57.70
2018-06-08T02:27:29.590Z,58.00
2018-06-08T02:32:33.171Z,58.00
2018-06-08T02:37:36.844Z,57.90
2018-06-08T02:42:40.470Z,57.60
2018-06-08T02:47:44.154Z,57.90
2018-06-08T02:52:47.794Z,58.20
2018-06-08T02:57:51.402Z,58.40
2018-06-08T03:02:55.146Z,58.30
2018-06-08T03:07:58.786Z,58.70
2018-06-08T03:13:02.550Z,58.60
2018-06-08T03:18:06.151Z,58.50
2018-06-08T03:23:09.753Z,58.60
2018-06-08T03:28:13.574Z,58.40
2018-06-08T03:33:17.212Z,58.70
2018-06-08T03:38:20.805Z,58.50
2018-06-08T03:43:24.425Z,58.60
2018-06-08T03:48:28.024Z,58.70
2018-06-08T03:53:31.572Z,58.90
2018-06-08T03:58:35.258Z,58.80
2018-06-08T04:03:38.858Z,58.90
2018-06-08T04:08:42.471Z,58.70
2018-06-08T04:13:46.206Z,59.00
2018-06-08T04:18:49.818Z,58.90
2018-06-08T04:23:53.369Z,59.00
2018-06-08T04:28:56.898Z,59.80
2018-06-08T04:34:00.479Z,59.10
2018-06-08T04:39:06.150Z,59.30
2018-06-08T04:44:09.726Z,59.30
2018-06-08T04:49:13.413Z,59.40
2018-06-08T04:54:17.155Z,59.80
2018-06-08T04:59:21.224Z,59.80
2018-06-08T05:04:24.826Z,59.80
2018-06-08T05:09:28.480Z,60.00
2018-06-08T05:14:32.095Z,60.40
2018-06-08T05:19:35.646Z,60.50
2018-06-08T05:24:42.859Z,61.50
2018-06-08T05:29:46.486Z,60.80
2018-06-08T05:34:50.084Z,60.80
2018-06-08T05:39:53.700Z,60.90
2018-06-08T05:44:57.310Z,60.80
2018-06-08T05:50:00.893Z,60.90
2018-06-08T05:55:04.502Z,60.80
2018-06-08T06:00:08.029Z,60.90
2018-06-08T06:05:11.649Z,60.70
2018-06-08T06:10:15.777Z,60.60
